sensor_id;sensor_type;location;lat;lon;timestamp;temperature;humidity
5128;DHT22;2582;48.770;9.190;2022-11-14T00:00:10;5.40;99.90
5128;DHT22;2582;48.770;9.190;2022-11-14T00:02:37;5.40;99.90
5128;DHT22;2582;48.770;9.190;2022-11-14T00:05:04;5.30;99.90
5128;DHT22;2582;48.770;9.190;2022-11-14T00:07:31;5.30;99.90
5128;DHT22;2582;48.770;9.190;2022-11-14T00:09:57;5.30;99.90
5128;DHT22;2582;48.770;9.190;2022-11-14T00:12:23;5.30;99.90
5128;DHT22;2582;48.770;9.190;2022-11-14T00:14:49;5.30;99.90
5128;DHT22;2582;48.770;9.190;2022-11-14T00:17:14;5.40;99.90
5128;DHT22;2582;48.770;9.190;2022-11-14T00:19:40;5.40;99.90
5128;DHT22;2582;48.770;9.190;2022-11-14T00:22:05;5.40;99.90
5128;DHT22;2582;48.770;9.190;2022-11-14T00:24:31;5.40;99.90
5128;DHT22;2582;48.770;9.190;2022-11-14T00:26:56;5.30;99.90
5128;DHT22;2582;48.770;9.190;2022-11-14T00:29:22;5.20;99.90
5128;DHT22;2582;48.770;9.190;2022-11-14T00:31:47;5.30;99.90
5128;DHT22;2582;48.770;9.190;2022-11-14T00:34:13;5.30;99.90
5128;DHT22;2582;48.770;9.190;2022-11-14T00:36:39;5.30;99.90
5128;DHT22;2582;48.770;9.190;2022-11-14T00:39:04;5.20;99.90
5128;DHT22;2582;48.770;9.190;2022-11-14T00:41:30;5.20;99.90
5128;DHT22;2582;48.770;9.190;2022-11-14T00:43:55;5.20;99.90
5128;DHT22;2582;48.770;9.190;2022-11-14T00:46:21;5.10;99.90
5128;DHT22;2582;48.770;9.190;2022-11-14T00:48:46;5.20;99.90
5128;DHT22;2582;48.770;9.190;2022-11-14T00:51:12;5.20;99.90
5128;DHT22;2582;48.770;9.190;2022-11-14T00:53:38;5.20;99.90
5128;DHT22;2582;48.770;9.190;2022-11-14T00:56:05;5.20;99.90
5128;DHT22;2582;48.770;9.190;2022-11-14T00:58:30;5.20;99.90
5128;DHT22;2582;48.770;9.190;2022-11-14T01:00:56;5.10;99.90
5128;DHT22;2582;48.770;9.190;2022-11-14T01:03:21;5.00;99.90
5128;DHT22;2582;48.770;9.190;2022-11-14T01:05:48;5.00;99.90
5128;DHT22;2582;48.770;9.190;2022-11-14T01:08:16;5.00;99.90
5128;DHT22;2582;48.770;9.190;2022-11-14T01:10:44;4.90;99.90
5128;DHT22;2582;48.770;9.190;2022-11-14T01:13:10;5.00;99.90
5128;DHT22;2582;48.770;9.190;2022-11-14T01:15:44;5.10;99.90
5128;DHT22;2582;48.770;9.190;2022-11-14T01:18:13;5.00;99.90
5128;DHT22;2582;48.770;9.190;2022-11-14T01:20:40;5.00;99.90
5128;DHT22;2582;48.770;9.190;2022-11-14T01:23:07;5.00;99.90
5128;DHT22;2582;48.770;9.190;2022-11-14T01:25:34;5.00;99.90
5128;DHT22;2582;48.770;9.190;2022-11-14T01:27:59;5.10;99.90
5128;DHT22;2582;48.770;9.190;2022-11-14T01:30:25;5.00;99.90
5128;DHT22;2582;48.770;9.190;2022-11-14T01:32:51;5.00;99.90
5128;DHT22;2582;48.770;9.190;2022-11-14T01:35:16;4.90;99.90
5128;DHT22;2582;48.770;9.190;2022-11-14T01:37:42;4.80;99.90
5128;DHT22;2582;48.770;9.190;2022-11-14T01:40:08;4.70;99.90
5128;DHT22;2582;48.770;9.190;2022-11-14T01:42:33;4.70;99.90
5128;DHT22;2582;48.770;9.190;2022-11-14T01:44:59;4.70;99.90
5128;DHT22;2582;48.770;9.190;2022-11-14T01:47:29;4.80;99.90
5128;DHT22;2582;48.770;9.190;2022-11-14T01:50:01;4.80;99.90
5128;DHT22;2582;48.770;9.190;2022-11-14T01:52:36;4.70;99.90
5128;DHT22;2582;48.770;9.190;2022-11-14T01:55:08;4.70;99.90
5128;DHT22;2582;48.770;9.190;2022-11-14T01:57:41;4.70;99.90
5128;DHT22;2582;48.770;9.190;2022-11-14T02:00:10;4.60;99.90
5128;DHT22;2582;48.770;9.190;2022-11-14T02:02:37;4.70;99.90
5128;DHT22;2582;48.770;9.190;2022-11-14T02:05:07;4.70;99.90
5128;DHT22;2582;48.770;9.190;2022-11-14T02:07:36;4.70;99.90
5128;DHT22;2582;48.770;9.190;2022-11-14T02:10:05;4.60;99.90
5128;DHT22;2582;48.770;9.190;2022-11-14T02:12:31;4.70;99.90
5128;DHT22;2582;48.770;9.190;2022-11-14T02:14:58;4.60;99.90
5128;DHT22;2582;48.770;9.190;2022-11-14T02:17:24;4.60;99.90
5128;DHT22;2582;48.770;9.190;2022-11-14T02:19:53;4.60;99.90
5128;DHT22;2582;48.770;9.190;2022-11-14T02:22:20;4.60;99.90
5128;DHT22;2582;48.770;9.190;2022-11-14T02:24:45;4.60;99.90
5128;DHT22;2582;48.770;9.190;2022-11-14T02:27:12;4.60;99.90
5128;DHT22;2582;48.770;9.190;2022-11-14T02:29:39;4.60;99.90
5128;DHT22;2582;48.770;9.190;2022-11-14T02:32:04;4.60;99.90
5128;DHT22;2582;48.770;9.190;2022-11-14T02:34:30;4.60;99.90
5128;DHT22;2582;48.770;9.190;2022-11-14T02:36:56;4.60;99.90
5128;DHT22;2582;48.770;9.190;2022-11-14T02:39:22;4.60;99.90
5128;DHT22;2582;48.770;9.190;2022-11-14T02:41:49;4.70;99.90
5128;DHT22;2582;48.770;9.190;2022-11-14T02:44:15;4.70;99.90
5128;DHT22;2582;48.770;9.190;2022-11-14T02:46:41;4.70;99.90
5128;DHT22;2582;48.770;9.190;2022-11-14T02:49:07;4.70;99.90
5128;DHT22;2582;48.770;9.190;2022-11-14T02:51:32;4.60;99.90
5128;DHT22;2582;48.770;9.190;2022-11-14T02:53:58;4.50;99.90
5128;DHT22;2582;48.770;9.190;2022-11-14T02:56:23;4.60;99.90
5128;DHT22;2582;48.770;9.190;2022-11-14T02:58:49;4.70;99.90
5128;DHT22;2582;48.770;9.190;2022-11-14T03:01:14;4.80;99.90
5128;DHT22;2582;48.770;9.190;2022-11-14T03:03:40;4.80;99.90
5128;DHT22;2582;48.770;9.190;2022-11-14T03:06:06;4.80;99.90
5128;DHT22;2582;48.770;9.190;2022-11-14T03:08:31;4.90;99.90
5128;DHT22;2582;48.770;9.190;2022-11-14T03:11:03;5.10;99.90
5128;DHT22;2582;48.770;9.190;2022-11-14T03:13:29;5.10;99.90
5128;DHT22;2582;48.770;9.190;2022-11-14T03:15:55;5.20;99.90
5128;DHT22;2582;48.770;9.190;2022-11-14T03:18:20;5.40;99.90
5128;DHT22;2582;48.770;9.190;2022-11-14T03:20:46;5.40;99.90
5128;DHT22;2582;48.770;9.190;2022-11-14T03:23:12;5.50;99.90
5128;DHT22;2582;48.770;9.190;2022-11-14T03:25:37;5.50;99.90
5128;DHT22;2582;48.770;9.190;2022-11-14T03:28:03;5.50;99.90
5128;DHT22;2582;48.770;9.190;2022-11-14T03:30:28;5.40;99.90
5128;DHT22;2582;48.770;9.190;2022-11-14T03:32:55;5.40;99.90
5128;DHT22;2582;48.770;9.190;2022-11-14T03:35:21;5.40;99.90
5128;DHT22;2582;48.770;9.190;2022-11-14T03:37:46;5.40;99.90
5128;DHT22;2582;48.770;9.190;2022-11-14T03:40:12;5.40;99.90
5128;DHT22;2582;48.770;9.190;2022-11-14T03:42:37;5.30;99.90
5128;DHT22;2582;48.770;9.190;2022-11-14T03:45:03;5.40;99.90
5128;DHT22;2582;48.770;9.190;2022-11-14T03:47:29;5.40;99.90
5128;DHT22;2582;48.770;9.190;2022-11-14T03:49:54;5.30;99.90
5128;DHT22;2582;48.770;9.190;2022-11-14T03:52:20;5.30;99.90
5128;DHT22;2582;48.770;9.190;2022-11-14T03:54:46;5.20;99.90
5128;DHT22;2582;48.770;9.190;2022-11-14T03:57:11;5.20;99.90
5128;DHT22;2582;48.770;9.190;2022-11-14T03:59:37;5.20;99.90
5128;DHT22;2582;48.770;9.190;2022-11-14T04:02:02;5.20;99.90
5128;DHT22;2582;48.770;9.190;2022-11-14T04:04:28;5.20;99.90
5128;DHT22;2582;48.770;9.190;2022-11-14T04:06:53;5.20;99.90
5128;DHT22;2582;48.770;9.190;2022-11-14T04:09:19;5.20;99.90
5128;DHT22;2582;48.770;9.190;2022-11-14T04:11:44;5.20;99.90
5128;DHT22;2582;48.770;9.190;2022-11-14T04:14:10;5.20;99.90
5128;DHT22;2582;48.770;9.190;2022-11-14T04:16:35;5.10;99.90
5128;DHT22;2582;48.770;9.190;2022-11-14T04:19:01;5.10;99.90
5128;DHT22;2582;48.770;9.190;2022-11-14T04:21:26;5.10;99.90
5128;DHT22;2582;48.770;9.190;2022-11-14T04:23:52;5.10;99.90
5128;DHT22;2582;48.770;9.190;2022-11-14T04:26:18;5.20;99.90
5128;DHT22;2582;48.770;9.190;2022-11-14T04:28:43;5.20;99.90
5128;DHT22;2582;48.770;9.190;2022-11-14T04:31:09;5.10;99.90
5128;DHT22;2582;48.770;9.190;2022-11-14T04:33:34;5.10;99.90
5128;DHT22;2582;48.770;9.190;2022-11-14T04:36:00;5.10;99.90
5128;DHT22;2582;48.770;9.190;2022-11-14T04:38:26;5.00;99.90
5128;DHT22;2582;48.770;9.190;2022-11-14T04:40:52;4.80;99.90
5128;DHT22;2582;48.770;9.190;2022-11-14T04:43:18;4.90;99.90
5128;DHT22;2582;48.770;9.190;2022-11-14T04:45:44;5.00;99.90
5128;DHT22;2582;48.770;9.190;2022-11-14T04:48:10;5.00;99.90
5128;DHT22;2582;48.770;9.190;2022-11-14T04:50:35;4.90;99.90
5128;DHT22;2582;48.770;9.190;2022-11-14T04:53:01;4.80;99.90
5128;DHT22;2582;48.770;9.190;2022-11-14T04:55:27;4.90;99.90
5128;DHT22;2582;48.770;9.190;2022-11-14T04:57:54;5.00;99.90
5128;DHT22;2582;48.770;9.190;2022-11-14T05:00:23;5.10;99.90
5128;DHT22;2582;48.770;9.190;2022-11-14T05:02:49;5.10;99.90
5128;DHT22;2582;48.770;9.190;2022-11-14T05:05:15;5.20;99.90
5128;DHT22;2582;48.770;9.190;2022-11-14T05:07:40;5.20;99.90
5128;DHT22;2582;48.770;9.190;2022-11-14T05:10:06;5.20;99.90
5128;DHT22;2582;48.770;9.190;2022-11-14T05:12:32;5.20;99.90
5128;DHT22;2582;48.770;9.190;2022-11-14T05:14:57;5.10;99.90
5128;DHT22;2582;48.770;9.190;2022-11-14T05:17:23;5.00;99.90
5128;DHT22;2582;48.770;9.190;2022-11-14T05:19:48;4.90;99.90
5128;DHT22;2582;48.770;9.190;2022-11-14T05:22:14;5.00;99.90
5128;DHT22;2582;48.770;9.190;2022-11-14T05:24:39;4.90;99.90
5128;DHT22;2582;48.770;9.190;2022-11-14T05:27:05;4.90;99.90
5128;DHT22;2582;48.770;9.190;2022-11-14T05:29:31;5.00;99.90
5128;DHT22;2582;48.770;9.190;2022-11-14T05:31:56;5.00;99.90
5128;DHT22;2582;48.770;9.190;2022-11-14T05:34:22;4.90;99.90
5128;DHT22;2582;48.770;9.190;2022-11-14T05:36:48;4.80;99.90
5128;DHT22;2582;48.770;9.190;2022-11-14T05:39:14;4.80;99.90
5128;DHT22;2582;48.770;9.190;2022-11-14T05:41:40;4.90;99.90
5128;DHT22;2582;48.770;9.190;2022-11-14T05:44:06;4.80;99.90
5128;DHT22;2582;48.770;9.190;2022-11-14T05:46:31;4.90;99.90
5128;DHT22;2582;48.770;9.190;2022-11-14T05:48:57;4.80;99.90
5128;DHT22;2582;48.770;9.190;2022-11-14T05:51:22;4.80;99.90
5128;DHT22;2582;48.770;9.190;2022-11-14T05:53:48;4.90;99.90
5128;DHT22;2582;48.770;9.190;2022-11-14T05:56:14;4.90;99.90
5128;DHT22;2582;48.770;9.190;2022-11-14T05:58:39;4.80;99.90
5128;DHT22;2582;48.770;9.190;2022-11-14T06:03:32;5.10;99.90
5128;DHT22;2582;48.770;9.190;2022-11-14T06:06:02;5.00;99.90
5128;DHT22;2582;48.770;9.190;2022-11-14T06:08:29;5.00;99.90
5128;DHT22;2582;48.770;9.190;2022-11-14T06:10:55;5.10;99.90
5128;DHT22;2582;48.770;9.190;2022-11-14T06:13:21;5.20;99.90
5128;DHT22;2582;48.770;9.190;2022-11-14T06:15:49;5.20;99.90
5128;DHT22;2582;48.770;9.190;2022-11-14T06:18:15;5.30;99.90
5128;DHT22;2582;48.770;9.190;2022-11-14T06:20:40;5.40;99.90
5128;DHT22;2582;48.770;9.190;2022-11-14T06:23:06;5.50;99.90
5128;DHT22;2582;48.770;9.190;2022-11-14T06:25:32;5.60;99.90
5128;DHT22;2582;48.770;9.190;2022-11-14T06:27:58;5.70;99.90
5128;DHT22;2582;48.770;9.190;2022-11-14T06:30:23;5.80;99.90
5128;DHT22;2582;48.770;9.190;2022-11-14T06:32:49;5.70;99.90
5128;DHT22;2582;48.770;9.190;2022-11-14T06:35:14;5.80;99.90
5128;DHT22;2582;48.770;9.190;2022-11-14T06:37:40;5.90;99.90
5128;DHT22;2582;48.770;9.190;2022-11-14T06:40:06;6.10;99.90
5128;DHT22;2582;48.770;9.190;2022-11-14T06:42:32;6.20;99.90
5128;DHT22;2582;48.770;9.190;2022-11-14T06:44:57;6.40;99.90
5128;DHT22;2582;48.770;9.190;2022-11-14T06:47:23;6.40;99.90
5128;DHT22;2582;48.770;9.190;2022-11-14T06:49:48;6.60;99.90
5128;DHT22;2582;48.770;9.190;2022-11-14T06:52:14;6.70;99.90
5128;DHT22;2582;48.770;9.190;2022-11-14T06:54:39;6.80;99.90
5128;DHT22;2582;48.770;9.190;2022-11-14T06:57:05;6.80;99.90
5128;DHT22;2582;48.770;9.190;2022-11-14T06:59:30;6.80;99.90
5128;DHT22;2582;48.770;9.190;2022-11-14T07:01:56;6.70;99.90
5128;DHT22;2582;48.770;9.190;2022-11-14T07:04:21;6.80;99.90
5128;DHT22;2582;48.770;9.190;2022-11-14T07:06:47;6.80;99.90
5128;DHT22;2582;48.770;9.190;2022-11-14T07:09:13;6.80;99.90
5128;DHT22;2582;48.770;9.190;2022-11-14T07:11:38;6.80;99.90
5128;DHT22;2582;48.770;9.190;2022-11-14T07:14:04;6.80;99.90
5128;DHT22;2582;48.770;9.190;2022-11-14T07:16:33;6.70;99.90
5128;DHT22;2582;48.770;9.190;2022-11-14T07:19:04;6.70;99.90
5128;DHT22;2582;48.770;9.190;2022-11-14T07:21:30;6.80;99.90
5128;DHT22;2582;48.770;9.190;2022-11-14T07:23:56;6.80;99.90
5128;DHT22;2582;48.770;9.190;2022-11-14T07:26:22;6.90;99.90
5128;DHT22;2582;48.770;9.190;2022-11-14T07:28:48;6.90;99.90
5128;DHT22;2582;48.770;9.190;2022-11-14T07:31:16;7.00;99.90
5128;DHT22;2582;48.770;9.190;2022-11-14T07:33:43;7.00;99.90
5128;DHT22;2582;48.770;9.190;2022-11-14T07:36:09;7.00;99.90
5128;DHT22;2582;48.770;9.190;2022-11-14T07:38:36;7.00;99.90
5128;DHT22;2582;48.770;9.190;2022-11-14T07:41:05;6.90;99.90
5128;DHT22;2582;48.770;9.190;2022-11-14T07:43:31;7.00;99.90
5128;DHT22;2582;48.770;9.190;2022-11-14T07:46:05;7.10;99.90
5128;DHT22;2582;48.770;9.190;2022-11-14T07:48:32;7.20;99.90
5128;DHT22;2582;48.770;9.190;2022-11-14T07:51:01;7.30;99.90
5128;DHT22;2582;48.770;9.190;2022-11-14T07:53:28;7.40;99.90
5128;DHT22;2582;48.770;9.190;2022-11-14T07:55:54;7.50;99.90
5128;DHT22;2582;48.770;9.190;2022-11-14T07:58:20;7.70;99.90
5128;DHT22;2582;48.770;9.190;2022-11-14T08:00:45;7.80;99.90
5128;DHT22;2582;48.770;9.190;2022-11-14T08:03:11;7.90;99.90
5128;DHT22;2582;48.770;9.190;2022-11-14T08:05:36;8.00;99.90
5128;DHT22;2582;48.770;9.190;2022-11-14T08:08:02;8.10;99.90
5128;DHT22;2582;48.770;9.190;2022-11-14T08:10:28;8.20;99.90
5128;DHT22;2582;48.770;9.190;2022-11-14T08:12:58;8.20;99.90
5128;DHT22;2582;48.770;9.190;2022-11-14T08:15:25;8.30;99.90
5128;DHT22;2582;48.770;9.190;2022-11-14T08:17:50;8.40;99.90
5128;DHT22;2582;48.770;9.190;2022-11-14T08:20:16;8.50;99.90
5128;DHT22;2582;48.770;9.190;2022-11-14T08:22:41;8.50;99.90
5128;DHT22;2582;48.770;9.190;2022-11-14T08:25:07;8.50;99.90
5128;DHT22;2582;48.770;9.190;2022-11-14T08:27:33;8.60;99.90
5128;DHT22;2582;48.770;9.190;2022-11-14T08:29:58;8.80;99.90
5128;DHT22;2582;48.770;9.190;2022-11-14T08:32:24;8.80;99.90
5128;DHT22;2582;48.770;9.190;2022-11-14T08:34:49;8.90;99.90
5128;DHT22;2582;48.770;9.190;2022-11-14T08:37:15;8.90;99.90
5128;DHT22;2582;48.770;9.190;2022-11-14T08:39:40;8.80;99.90
5128;DHT22;2582;48.770;9.190;2022-11-14T08:42:06;8.90;99.90
5128;DHT22;2582;48.770;9.190;2022-11-14T08:44:31;8.90;99.90
5128;DHT22;2582;48.770;9.190;2022-11-14T08:46:57;8.90;99.90
5128;DHT22;2582;48.770;9.190;2022-11-14T08:49:25;8.90;99.90
5128;DHT22;2582;48.770;9.190;2022-11-14T08:51:53;8.90;99.90
5128;DHT22;2582;48.770;9.190;2022-11-14T08:54:19;9.00;99.90
5128;DHT22;2582;48.770;9.190;2022-11-14T08:56:45;9.00;99.90
5128;DHT22;2582;48.770;9.190;2022-11-14T08:59:11;9.20;99.90
5128;DHT22;2582;48.770;9.190;2022-11-14T09:01:36;9.30;99.90
5128;DHT22;2582;48.770;9.190;2022-11-14T09:04:02;9.30;99.90
5128;DHT22;2582;48.770;9.190;2022-11-14T09:06:27;9.40;99.90
5128;DHT22;2582;48.770;9.190;2022-11-14T09:08:53;9.60;99.90
5128;DHT22;2582;48.770;9.190;2022-11-14T09:11:19;9.60;99.90
5128;DHT22;2582;48.770;9.190;2022-11-14T09:13:45;9.70;99.90
5128;DHT22;2582;48.770;9.190;2022-11-14T09:16:10;9.60;99.90
5128;DHT22;2582;48.770;9.190;2022-11-14T09:18:36;9.70;99.90
5128;DHT22;2582;48.770;9.190;2022-11-14T09:21:04;9.70;99.90
5128;DHT22;2582;48.770;9.190;2022-11-14T09:23:29;9.80;99.90
5128;DHT22;2582;48.770;9.190;2022-11-14T09:25:55;9.90;99.90
5128;DHT22;2582;48.770;9.190;2022-11-14T09:28:22;9.90;99.90
5128;DHT22;2582;48.770;9.190;2022-11-14T09:30:48;9.80;99.90
5128;DHT22;2582;48.770;9.190;2022-11-14T09:33:14;9.90;99.90
5128;DHT22;2582;48.770;9.190;2022-11-14T09:35:39;10.00;99.90
5128;DHT22;2582;48.770;9.190;2022-11-14T09:38:08;10.10;99.90
5128;DHT22;2582;48.770;9.190;2022-11-14T09:40:56;10.20;99.90
5128;DHT22;2582;48.770;9.190;2022-11-14T09:46:21;10.50;99.90
5128;DHT22;2582;48.770;9.190;2022-11-14T09:48:48;10.40;99.90
5128;DHT22;2582;48.770;9.190;2022-11-14T09:51:19;10.40;99.90
5128;DHT22;2582;48.770;9.190;2022-11-14T09:56:22;10.50;99.90
5128;DHT22;2582;48.770;9.190;2022-11-14T09:58:51;10.50;99.90
5128;DHT22;2582;48.770;9.190;2022-11-14T10:05:10;10.80;99.90
5128;DHT22;2582;48.770;9.190;2022-11-14T10:07:43;10.90;99.90
5128;DHT22;2582;48.770;9.190;2022-11-14T10:10:28;10.90;99.90
5128;DHT22;2582;48.770;9.190;2022-11-14T10:27:03;11.60;99.90
5128;DHT22;2582;48.770;9.190;2022-11-14T10:32:22;11.80;99.90
5128;DHT22;2582;48.770;9.190;2022-11-14T10:35:03;11.80;99.90
5128;DHT22;2582;48.770;9.190;2022-11-14T10:38:03;11.60;99.90
5128;DHT22;2582;48.770;9.190;2022-11-14T10:40:44;11.50;99.90
5128;DHT22;2582;48.770;9.190;2022-11-14T10:43:48;11.40;99.90
5128;DHT22;2582;48.770;9.190;2022-11-14T10:46:19;11.40;99.90
5128;DHT22;2582;48.770;9.190;2022-11-14T10:48:49;11.40;99.90
5128;DHT22;2582;48.770;9.190;2022-11-14T10:51:35;11.50;99.90
5128;DHT22;2582;48.770;9.190;2022-11-14T10:56:34;11.90;99.90
5128;DHT22;2582;48.770;9.190;2022-11-14T10:58:59;11.90;99.90
5128;DHT22;2582;48.770;9.190;2022-11-14T11:01:52;12.10;99.90
5128;DHT22;2582;48.770;9.190;2022-11-14T11:04:29;12.00;99.90
5128;DHT22;2582;48.770;9.190;2022-11-14T11:07:22;12.00;99.90
5128;DHT22;2582;48.770;9.190;2022-11-14T11:10:19;12.10;99.90
5128;DHT22;2582;48.770;9.190;2022-11-14T11:13:04;12.30;99.90
5128;DHT22;2582;48.770;9.190;2022-11-14T11:15:31;12.70;99.90
5128;DHT22;2582;48.770;9.190;2022-11-14T11:18:05;13.00;99.90
5128;DHT22;2582;48.770;9.190;2022-11-14T11:20:38;13.50;99.90
5128;DHT22;2582;48.770;9.190;2022-11-14T11:25:35;13.80;99.90
5128;DHT22;2582;48.770;9.190;2022-11-14T11:28:15;14.00;99.90
5128;DHT22;2582;48.770;9.190;2022-11-14T11:31:03;14.00;99.90
5128;DHT22;2582;48.770;9.190;2022-11-14T11:33:30;14.10;99.90
5128;DHT22;2582;48.770;9.190;2022-11-14T11:36:03;14.00;99.90
5128;DHT22;2582;48.770;9.190;2022-11-14T11:38:33;14.20;99.90
5128;DHT22;2582;48.770;9.190;2022-11-14T11:41:26;14.20;99.90
5128;DHT22;2582;48.770;9.190;2022-11-14T11:44:04;13.70;99.90
5128;DHT22;2582;48.770;9.190;2022-11-14T11:46:52;13.50;99.90
5128;DHT22;2582;48.770;9.190;2022-11-14T11:49:46;13.50;99.90
5128;DHT22;2582;48.770;9.190;2022-11-14T11:55:18;13.10;99.90
5128;DHT22;2582;48.770;9.190;2022-11-14T12:00:40;13.00;99.90
5128;DHT22;2582;48.770;9.190;2022-11-14T12:03:12;12.90;99.90
5128;DHT22;2582;48.770;9.190;2022-11-14T12:11:01;12.90;99.90
5128;DHT22;2582;48.770;9.190;2022-11-14T12:13:49;12.70;99.90
5128;DHT22;2582;48.770;9.190;2022-11-14T12:19:37;12.80;99.90
5128;DHT22;2582;48.770;9.190;2022-11-14T12:30:47;13.30;99.90
5128;DHT22;2582;48.770;9.190;2022-11-14T12:33:30;13.30;99.90
5128;DHT22;2582;48.770;9.190;2022-11-14T12:36:02;13.40;99.90
5128;DHT22;2582;48.770;9.190;2022-11-14T12:38:33;14.10;99.90
5128;DHT22;2582;48.770;9.190;2022-11-14T12:41:04;14.40;99.90
5128;DHT22;2582;48.770;9.190;2022-11-14T12:43:34;14.40;99.90
5128;DHT22;2582;48.770;9.190;2022-11-14T12:46:04;14.20;99.90
5128;DHT22;2582;48.770;9.190;2022-11-14T12:48:35;13.80;99.90
5128;DHT22;2582;48.770;9.190;2022-11-14T12:51:02;13.70;99.90
5128;DHT22;2582;48.770;9.190;2022-11-14T13:01:30;13.50;99.90
5128;DHT22;2582;48.770;9.190;2022-11-14T13:10:40;13.60;99.90
5128;DHT22;2582;48.770;9.190;2022-11-14T13:13:13;13.60;99.90
5128;DHT22;2582;48.770;9.190;2022-11-14T13:15:59;13.70;99.90
5128;DHT22;2582;48.770;9.190;2022-11-14T13:27:28;13.70;99.90
5128;DHT22;2582;48.770;9.190;2022-11-14T13:29:55;13.60;99.90
5128;DHT22;2582;48.770;9.190;2022-11-14T13:35:12;13.80;99.90
5128;DHT22;2582;48.770;9.190;2022-11-14T13:41:02;13.90;99.90
5128;DHT22;2582;48.770;9.190;2022-11-14T13:46:32;13.90;99.90
5128;DHT22;2582;48.770;9.190;2022-11-14T13:51:43;13.80;99.90
5128;DHT22;2582;48.770;9.190;2022-11-14T13:54:14;13.40;99.90
5128;DHT22;2582;48.770;9.190;2022-11-14T13:59:26;13.50;99.90
5128;DHT22;2582;48.770;9.190;2022-11-14T14:02:19;13.50;99.90
5128;DHT22;2582;48.770;9.190;2022-11-14T14:10:46;13.20;99.90
5128;DHT22;2582;48.770;9.190;2022-11-14T14:13:30;13.10;99.90
5128;DHT22;2582;48.770;9.190;2022-11-14T14:16:14;13.00;99.90
5128;DHT22;2582;48.770;9.190;2022-11-14T14:27:05;12.90;99.90
5128;DHT22;2582;48.770;9.190;2022-11-14T14:29:44;13.00;99.90
5128;DHT22;2582;48.770;9.190;2022-11-14T14:32:17;13.20;99.90
5128;DHT22;2582;48.770;9.190;2022-11-14T14:34:44;13.10;99.90
5128;DHT22;2582;48.770;9.190;2022-11-14T14:37:22;13.10;99.90
5128;DHT22;2582;48.770;9.190;2022-11-14T14:39:59;13.30;99.90
5128;DHT22;2582;48.770;9.190;2022-11-14T14:42:38;13.40;99.90
5128;DHT22;2582;48.770;9.190;2022-11-14T14:45:14;13.30;99.90
5128;DHT22;2582;48.770;9.190;2022-11-14T14:47:42;13.30;99.90
5128;DHT22;2582;48.770;9.190;2022-11-14T14:50:22;13.10;99.90
5128;DHT22;2582;48.770;9.190;2022-11-14T14:53:00;13.10;99.90
5128;DHT22;2582;48.770;9.190;2022-11-14T14:55:34;12.90;99.90
5128;DHT22;2582;48.770;9.190;2022-11-14T14:58:36;12.90;99.90
5128;DHT22;2582;48.770;9.190;2022-11-14T15:01:10;12.70;99.90
5128;DHT22;2582;48.770;9.190;2022-11-14T15:03:39;12.70;99.90
5128;DHT22;2582;48.770;9.190;2022-11-14T15:08:46;12.50;99.90
5128;DHT22;2582;48.770;9.190;2022-11-14T15:11:13;12.40;99.90
5128;DHT22;2582;48.770;9.190;2022-11-14T15:13:40;12.50;99.90
5128;DHT22;2582;48.770;9.190;2022-11-14T15:16:07;12.50;99.90
5128;DHT22;2582;48.770;9.190;2022-11-14T15:18:34;12.50;99.90
5128;DHT22;2582;48.770;9.190;2022-11-14T15:21:11;12.40;99.90
5128;DHT22;2582;48.770;9.190;2022-11-14T15:23:38;12.40;99.90
5128;DHT22;2582;48.770;9.190;2022-11-14T15:26:12;12.30;99.90
5128;DHT22;2582;48.770;9.190;2022-11-14T15:28:38;12.30;99.90
5128;DHT22;2582;48.770;9.190;2022-11-14T15:31:04;12.20;99.90
5128;DHT22;2582;48.770;9.190;2022-11-14T15:33:32;12.30;99.90
5128;DHT22;2582;48.770;9.190;2022-11-14T15:36:07;12.30;99.90
5128;DHT22;2582;48.770;9.190;2022-11-14T15:38:34;12.30;99.90
5128;DHT22;2582;48.770;9.190;2022-11-14T15:41:23;12.20;99.90
5128;DHT22;2582;48.770;9.190;2022-11-14T15:43:51;12.10;99.90
5128;DHT22;2582;48.770;9.190;2022-11-14T15:48:51;11.90;99.90
5128;DHT22;2582;48.770;9.190;2022-11-14T15:51:16;11.70;99.90
5128;DHT22;2582;48.770;9.190;2022-11-14T15:53:46;11.50;99.90
5128;DHT22;2582;48.770;9.190;2022-11-14T15:56:12;11.50;99.90
5128;DHT22;2582;48.770;9.190;2022-11-14T15:58:38;11.40;99.90
5128;DHT22;2582;48.770;9.190;2022-11-14T16:01:04;11.20;99.90
5128;DHT22;2582;48.770;9.190;2022-11-14T16:03:30;11.10;99.90
5128;DHT22;2582;48.770;9.190;2022-11-14T16:05:56;11.10;99.90
5128;DHT22;2582;48.770;9.190;2022-11-14T16:08:21;11.00;99.90
5128;DHT22;2582;48.770;9.190;2022-11-14T16:10:47;10.90;99.90
5128;DHT22;2582;48.770;9.190;2022-11-14T16:13:12;10.90;99.90
5128;DHT22;2582;48.770;9.190;2022-11-14T16:15:38;11.00;99.90
5128;DHT22;2582;48.770;9.190;2022-11-14T16:18:04;10.90;99.90
5128;DHT22;2582;48.770;9.190;2022-11-14T16:20:30;10.90;99.90
5128;DHT22;2582;48.770;9.190;2022-11-14T16:22:58;10.90;99.90
5128;DHT22;2582;48.770;9.190;2022-11-14T16:25:29;10.90;99.90
5128;DHT22;2582;48.770;9.190;2022-11-14T16:27:55;10.90;99.90
5128;DHT22;2582;48.770;9.190;2022-11-14T16:30:22;10.80;99.90
5128;DHT22;2582;48.770;9.190;2022-11-14T16:32:49;10.90;99.90
5128;DHT22;2582;48.770;9.190;2022-11-14T16:35:25;10.90;99.90
5128;DHT22;2582;48.770;9.190;2022-11-14T16:37:53;10.90;99.90
5128;DHT22;2582;48.770;9.190;2022-11-14T16:40:24;10.80;99.90
5128;DHT22;2582;48.770;9.190;2022-11-14T16:42:54;10.90;99.90
5128;DHT22;2582;48.770;9.190;2022-11-14T16:45:20;10.90;99.90
5128;DHT22;2582;48.770;9.190;2022-11-14T16:47:47;10.80;99.90
5128;DHT22;2582;48.770;9.190;2022-11-14T16:50:13;10.80;99.90
5128;DHT22;2582;48.770;9.190;2022-11-14T16:52:39;10.80;99.90
5128;DHT22;2582;48.770;9.190;2022-11-14T16:55:09;10.80;99.90
5128;DHT22;2582;48.770;9.190;2022-11-14T16:57:34;10.80;99.90
5128;DHT22;2582;48.770;9.190;2022-11-14T17:00:07;10.80;99.90
5128;DHT22;2582;48.770;9.190;2022-11-14T17:02:35;10.80;99.90
5128;DHT22;2582;48.770;9.190;2022-11-14T17:05:00;10.80;99.90
5128;DHT22;2582;48.770;9.190;2022-11-14T17:07:26;10.80;99.90
5128;DHT22;2582;48.770;9.190;2022-11-14T17:09:55;10.90;99.90
5128;DHT22;2582;48.770;9.190;2022-11-14T17:12:20;11.00;99.90
5128;DHT22;2582;48.770;9.190;2022-11-14T17:14:46;11.00;99.90
5128;DHT22;2582;48.770;9.190;2022-11-14T17:17:11;11.00;99.90
5128;DHT22;2582;48.770;9.190;2022-11-14T17:19:37;11.00;99.90
5128;DHT22;2582;48.770;9.190;2022-11-14T17:22:13;10.90;99.90
5128;DHT22;2582;48.770;9.190;2022-11-14T17:24:39;11.00;99.90
5128;DHT22;2582;48.770;9.190;2022-11-14T17:27:05;10.90;99.90
5128;DHT22;2582;48.770;9.190;2022-11-14T17:29:31;10.80;99.90
5128;DHT22;2582;48.770;9.190;2022-11-14T17:31:56;10.70;99.90
5128;DHT22;2582;48.770;9.190;2022-11-14T17:34:22;10.60;99.90
5128;DHT22;2582;48.770;9.190;2022-11-14T17:36:48;10.60;99.90
5128;DHT22;2582;48.770;9.190;2022-11-14T17:39:13;10.70;99.90
5128;DHT22;2582;48.770;9.190;2022-11-14T17:41:39;10.70;99.90
5128;DHT22;2582;48.770;9.190;2022-11-14T17:44:05;10.70;99.90
5128;DHT22;2582;48.770;9.190;2022-11-14T17:46:31;10.60;99.90
5128;DHT22;2582;48.770;9.190;2022-11-14T17:48:57;10.70;99.90
5128;DHT22;2582;48.770;9.190;2022-11-14T17:51:23;10.60;99.90
5128;DHT22;2582;48.770;9.190;2022-11-14T17:53:50;10.70;99.90
5128;DHT22;2582;48.770;9.190;2022-11-14T17:56:18;10.90;99.90
5128;DHT22;2582;48.770;9.190;2022-11-14T17:58:44;10.70;99.90
5128;DHT22;2582;48.770;9.190;2022-11-14T18:01:12;10.80;99.90
5128;DHT22;2582;48.770;9.190;2022-11-14T18:03:38;11.10;99.90
5128;DHT22;2582;48.770;9.190;2022-11-14T18:06:07;11.20;99.90
5128;DHT22;2582;48.770;9.190;2022-11-14T18:08:34;11.30;99.90
5128;DHT22;2582;48.770;9.190;2022-11-14T18:11:00;11.30;99.90
5128;DHT22;2582;48.770;9.190;2022-11-14T18:13:26;11.30;99.90